createdAt,value
2023-01-12T00:02:15.012Z,6.41
2023-01-12T00:04:54.709Z,6.39
2023-01-12T00:07:23.699Z,6.40
2023-01-12T00:09:52.058Z,6.40
2023-01-12T00:12:20.453Z,6.38
2023-01-12T00:14:48.815Z,6.33
2023-01-12T00:17:19.562Z,6.27
2023-01-12T00:19:47.973Z,6.20
2023-01-12T00:22:18.346Z,6.15
2023-01-12T00:24:49.857Z,6.09
2023-01-12T00:27:20.173Z,6.03
2023-01-12T00:29:48.790Z,5.96
2023-01-12T00:32:19.167Z,5.92
2023-01-12T00:34:47.787Z,5.90
2023-01-12T00:37:18.023Z,5.90
2023-01-12T00:40:01.015Z,5.89
2023-01-12T00:42:48.137Z,5.89
2023-01-12T00:45:22.488Z,5.89
2023-01-12T00:47:51.079Z,5.89
2023-01-12T00:50:19.879Z,5.87
2023-01-12T00:52:49.632Z,5.87
2023-01-12T00:55:17.881Z,5.89
2023-01-12T00:57:46.196Z,5.88
2023-01-12T01:00:15.524Z,5.86
2023-01-12T01:02:43.904Z,5.83
2023-01-12T01:05:12.230Z,5.82
2023-01-12T01:07:40.616Z,5.80
2023-01-12T01:10:12.205Z,5.78
2023-01-12T01:12:40.522Z,5.74
2023-01-12T01:15:10.108Z,5.70
2023-01-12T01:17:38.450Z,5.66
2023-01-12T01:20:07.485Z,5.63
2023-01-12T01:22:36.009Z,5.62
2023-01-12T01:25:04.590Z,5.59
2023-01-12T01:27:34.356Z,5.56
2023-01-12T01:30:02.709Z,5.54
2023-01-12T01:32:31.001Z,5.52
2023-01-12T01:34:59.320Z,5.48
2023-01-12T01:37:27.691Z,5.47
2023-01-12T01:39:56.263Z,5.45
2023-01-12T01:42:29.144Z,5.42
2023-01-12T01:45:01.027Z,5.42
2023-01-12T01:47:35.583Z,5.42
2023-01-12T01:50:13.431Z,5.42
2023-01-12T01:52:46.340Z,5.43
2023-01-12T01:55:19.690Z,5.43
2023-01-12T01:57:53.320Z,5.43
2023-01-12T02:00:25.948Z,5.41
2023-01-12T02:02:56.124Z,5.39
2023-01-12T02:05:27.641Z,5.37
2023-01-12T02:08:01.173Z,5.37
2023-01-12T02:10:29.606Z,5.33
2023-01-12T02:13:15.600Z,5.30
2023-01-12T02:16:22.825Z,5.25
2023-01-12T02:19:01.809Z,5.22
2023-01-12T02:22:13.956Z,5.19
2023-01-12T02:25:10.711Z,5.17
2023-01-12T02:27:54.296Z,5.12
2023-01-12T02:31:04.533Z,5.08
2023-01-12T02:33:45.827Z,4.98
2023-01-12T02:36:24.276Z,4.92
2023-01-12T02:38:58.575Z,4.89
2023-01-12T02:41:54.614Z,4.85
2023-01-12T02:44:29.170Z,4.83
2023-01-12T02:47:01.680Z,4.82
2023-01-12T02:49:34.158Z,4.82
2023-01-12T02:52:07.734Z,4.83
2023-01-12T02:54:38.271Z,4.83
2023-01-12T02:57:10.026Z,4.73
2023-01-12T02:59:41.289Z,4.71
2023-01-12T03:02:13.239Z,4.70
2023-01-12T03:04:42.311Z,4.63
2023-01-12T03:07:37.505Z,4.54
2023-01-12T03:10:20.671Z,4.45
2023-01-12T03:12:52.192Z,4.37
2023-01-12T03:15:20.623Z,4.31
2023-01-12T03:17:57.013Z,4.27
2023-01-12T03:20:29.623Z,4.24
2023-01-12T03:23:01.086Z,4.19
2023-01-12T03:25:32.495Z,4.16
2023-01-12T03:28:02.698Z,4.15
2023-01-12T03:30:36.771Z,4.13
2023-01-12T03:33:07.658Z,4.11
2023-01-12T03:35:41.320Z,4.09
2023-01-12T03:38:19.726Z,4.08
2023-01-12T03:40:54.153Z,4.06
2023-01-12T03:43:29.969Z,4.03
2023-01-12T03:46:03.796Z,4.01
2023-01-12T03:48:39.520Z,4.02
2023-01-12T03:51:12.840Z,4.01
2023-01-12T03:53:44.047Z,3.97
2023-01-12T03:56:15.122Z,3.98
2023-01-12T03:58:44.250Z,4.00
2023-01-12T04:01:13.053Z,4.01
2023-01-12T04:03:42.768Z,4.00
2023-01-12T04:06:11.201Z,4.00
2023-01-12T04:08:39.546Z,3.98
2023-01-12T04:11:22.570Z,3.97
2023-01-12T04:13:51.210Z,3.96
2023-01-12T04:16:19.660Z,3.93
2023-01-12T04:18:49.388Z,3.90
2023-01-12T04:21:35.320Z,3.90
2023-01-12T04:24:03.716Z,3.85
2023-01-12T04:26:32.024Z,3.81
2023-01-12T04:29:00.356Z,3.79
2023-01-12T04:31:28.822Z,3.75
2023-01-12T04:33:58.508Z,3.72
2023-01-12T04:36:26.831Z,3.70
2023-01-12T04:38:55.289Z,3.71
2023-01-12T04:41:23.638Z,3.70
2023-01-12T04:43:51.957Z,3.70
2023-01-12T04:46:20.322Z,3.70
2023-01-12T04:48:48.688Z,3.66
2023-01-12T04:51:18.689Z,3.66
2023-01-12T04:53:48.215Z,3.65
2023-01-12T04:56:16.515Z,3.63
2023-01-12T04:58:45.026Z,3.61
2023-01-12T05:01:15.339Z,3.59
2023-01-12T05:03:44.734Z,3.56
2023-01-12T05:06:13.399Z,3.53
2023-01-12T05:09:00.983Z,3.52
2023-01-12T05:11:30.126Z,3.51
2023-01-12T05:13:58.516Z,3.50
2023-01-12T05:16:27.390Z,3.51
2023-01-12T05:18:55.914Z,3.49
2023-01-12T05:21:25.520Z,3.49
2023-01-12T05:23:55.508Z,3.48
2023-01-12T05:26:23.756Z,3.46
2023-01-12T05:28:52.684Z,3.46
2023-01-12T05:31:21.061Z,3.45
2023-01-12T05:33:49.676Z,3.45
2023-01-12T05:36:18.615Z,3.43
2023-01-12T05:38:47.159Z,3.44
2023-01-12T05:41:16.870Z,3.43
2023-01-12T05:43:50.441Z,3.42
2023-01-12T05:46:20.831Z,3.42
2023-01-12T05:48:50.148Z,3.43
2023-01-12T05:51:19.413Z,3.42
2023-01-12T05:53:47.924Z,3.42
2023-01-12T05:56:20.949Z,3.41
2023-01-12T05:58:52.965Z,3.41
2023-01-12T06:01:22.364Z,3.43
2023-01-12T06:03:51.663Z,3.44
2023-01-12T06:06:20.809Z,3.44
2023-01-12T06:08:52.137Z,3.45
2023-01-12T06:11:39.620Z,3.46
2023-01-12T06:14:08.648Z,3.46
2023-01-12T06:16:39.164Z,3.45
2023-01-12T06:19:07.912Z,3.47
2023-01-12T06:21:36.336Z,3.47
2023-01-12T06:24:05.247Z,3.49
2023-01-12T06:26:34.954Z,3.48
2023-01-12T06:29:05.335Z,3.48
2023-01-12T06:31:34.515Z,3.48
2023-01-12T06:34:02.904Z,3.48
2023-01-12T06:36:31.175Z,3.49
2023-01-12T06:38:59.463Z,3.49
2023-01-12T06:41:45.588Z,3.50
2023-01-12T06:44:15.302Z,3.49
2023-01-12T06:46:43.600Z,3.50
2023-01-12T06:49:12.205Z,3.49
2023-01-12T06:51:40.680Z,3.51
2023-01-12T06:54:09.032Z,3.51
2023-01-12T06:56:37.366Z,3.52
2023-01-12T06:59:05.780Z,3.53
2023-01-12T07:01:35.473Z,3.55
2023-01-12T07:04:03.861Z,3.55
2023-01-12T07:06:32.195Z,3.56
2023-01-12T07:09:00.439Z,3.55
2023-01-12T07:11:28.746Z,3.56
2023-01-12T07:13:57.264Z,3.58
2023-01-12T07:16:25.604Z,3.59
2023-01-12T07:18:55.415Z,3.61
2023-01-12T07:21:23.823Z,3.62
2023-01-12T07:23:52.131Z,3.62
2023-01-12T07:26:20.532Z,3.65
2023-01-12T07:28:49.082Z,3.64
2023-01-12T07:31:19.582Z,3.65
2023-01-12T07:33:47.999Z,3.68
2023-01-12T07:36:18.065Z,3.71
2023-01-12T07:38:46.532Z,3.73
2023-01-12T07:41:29.260Z,3.74
2023-01-12T07:43:57.673Z,3.74
2023-01-12T07:46:26.340Z,3.78
2023-01-12T07:48:54.908Z,3.81
2023-01-12T07:51:24.633Z,3.81
2023-01-12T07:53:53.047Z,3.84
2023-01-12T07:56:21.432Z,3.86
2023-01-12T07:58:50.781Z,3.91
2023-01-12T08:01:19.456Z,3.95
2023-01-12T08:03:47.869Z,3.97
2023-01-12T08:06:16.257Z,3.99
2023-01-12T08:08:46.369Z,4.00
2023-01-12T08:11:14.688Z,4.03
2023-01-12T08:13:43.005Z,4.06
2023-01-12T08:16:17.176Z,4.07
2023-01-12T08:18:49.114Z,4.07
2023-01-12T08:21:23.165Z,4.10
2023-01-12T08:23:57.340Z,4.10
2023-01-12T08:26:28.275Z,4.11
2023-01-12T08:29:00.817Z,4.12
2023-01-12T08:31:29.521Z,4.12
2023-01-12T08:33:57.975Z,4.12
2023-01-12T08:36:28.840Z,4.12
2023-01-12T08:38:58.941Z,4.13
2023-01-12T08:41:33.372Z,4.13
2023-01-12T08:44:06.552Z,4.15
2023-01-12T08:46:36.915Z,4.15
2023-01-12T08:49:09.873Z,4.14
2023-01-12T08:51:39.554Z,4.18
2023-01-12T08:54:11.493Z,4.23
2023-01-12T08:56:39.851Z,4.30
2023-01-12T08:59:08.472Z,4.38
2023-01-12T09:01:37.352Z,4.45
2023-01-12T09:04:06.997Z,4.50
2023-01-12T09:06:37.777Z,4.56
2023-01-12T09:09:08.598Z,4.62
2023-01-12T09:11:39.608Z,4.70
2023-01-12T09:14:08.119Z,4.80
2023-01-12T09:16:37.002Z,4.87
2023-01-12T09:19:05.607Z,4.94
2023-01-12T09:21:37.775Z,4.99
2023-01-12T09:24:07.170Z,5.00
2023-01-12T09:26:40.126Z,5.00
2023-01-12T09:29:08.518Z,5.02
2023-01-12T09:31:38.688Z,5.03
2023-01-12T09:34:07.697Z,5.07
2023-01-12T09:36:39.609Z,5.07
2023-01-12T09:39:12.770Z,5.10
2023-01-12T09:42:06.804Z,5.10
2023-01-12T09:44:55.247Z,5.09
2023-01-12T09:47:29.807Z,5.08
2023-01-12T09:50:09.176Z,5.08
2023-01-12T09:52:42.806Z,5.08
2023-01-12T09:55:17.474Z,5.10
2023-01-12T09:58:02.695Z,5.14
2023-01-12T10:00:32.480Z,5.19
2023-01-12T10:03:12.805Z,5.23
2023-01-12T10:05:46.034Z,5.25
2023-01-12T10:08:19.114Z,5.30
2023-01-12T10:11:03.123Z,5.33
2023-01-12T10:13:49.109Z,5.35
2023-01-12T10:16:22.364Z,5.39
2023-01-12T10:18:57.601Z,5.39
2023-01-12T10:21:27.529Z,5.40
2023-01-12T10:23:56.156Z,5.40
2023-01-12T10:26:26.588Z,5.40
2023-01-12T10:28:58.277Z,5.43
2023-01-12T10:31:27.406Z,5.47
2023-01-12T10:34:07.750Z,5.50
2023-01-12T10:36:38.116Z,5.52
2023-01-12T10:39:29.474Z,5.55
2023-01-12T10:42:31.870Z,5.58
2023-01-12T10:45:20.702Z,5.64
2023-01-12T10:47:50.920Z,5.69
2023-01-12T10:50:25.018Z,5.73
2023-01-12T10:52:57.322Z,5.76
2023-01-12T10:55:31.241Z,5.81
2023-01-12T10:58:00.328Z,5.85
2023-01-12T11:00:31.112Z,5.90
2023-01-12T11:02:59.602Z,5.94
2023-01-12T11:05:31.262Z,5.97
2023-01-12T11:08:00.038Z,6.01
2023-01-12T11:10:31.776Z,6.04
2023-01-12T11:13:03.506Z,6.08
2023-01-12T11:15:39.061Z,6.14
2023-01-12T11:18:28.341Z,6.20
2023-01-12T11:21:02.443Z,6.26
2023-01-12T11:23:38.332Z,6.30
2023-01-12T11:26:17.318Z,6.34
2023-01-12T11:28:48.948Z,6.39
2023-01-12T11:31:23.682Z,6.42
2023-01-12T11:33:56.333Z,6.44
2023-01-12T11:36:28.544Z,6.46
2023-01-12T11:39:03.208Z,6.47
2023-01-12T11:41:38.953Z,6.50
2023-01-12T11:44:16.511Z,6.54
2023-01-12T11:46:49.745Z,6.58
2023-01-12T11:49:24.054Z,6.66
2023-01-12T11:51:56.776Z,6.77
2023-01-12T11:54:26.929Z,6.83
2023-01-12T11:57:42.598Z,6.86
2023-01-12T12:00:25.876Z,6.90
2023-01-12T12:03:02.966Z,6.93
2023-01-12T12:05:43.865Z,6.97
2023-01-12T12:08:27.156Z,7.01
2023-01-12T12:11:00.764Z,7.06
2023-01-12T12:13:36.879Z,7.10
2023-01-12T12:16:17.651Z,7.15
2023-01-12T12:18:57.970Z,7.20
2023-01-12T12:21:47.734Z,7.25
2023-01-12T12:24:41.511Z,7.33
2023-01-12T12:27:17.964Z,7.36
2023-01-12T12:30:12.952Z,7.38
2023-01-12T12:32:50.352Z,7.40
2023-01-12T12:35:34.925Z,7.41
2023-01-12T12:38:15.799Z,7.43
2023-01-12T12:41:13.810Z,7.44
2023-01-12T12:43:59.704Z,7.48
2023-01-12T12:46:37.706Z,7.52
2023-01-12T12:49:09.643Z,7.54
2023-01-12T12:51:41.817Z,7.58
2023-01-12T12:54:17.061Z,7.62
2023-01-12T12:56:47.643Z,7.67
2023-01-12T12:59:51.244Z,7.71
2023-01-12T13:02:35.486Z,7.74
2023-01-12T13:05:09.002Z,7.75
2023-01-12T13:07:51.506Z,7.75
2023-01-12T13:10:30.560Z,7.77
2023-01-12T13:13:30.873Z,7.78
2023-01-12T13:16:42.260Z,7.74
2023-01-12T13:19:32.652Z,7.71
2023-01-12T13:22:26.546Z,7.72
2023-01-12T13:24:57.497Z,7.75
2023-01-12T13:27:48.652Z,7.75
2023-01-12T13:30:25.274Z,7.76
2023-01-12T13:33:17.798Z,7.79
2023-01-12T13:36:06.790Z,7.82
2023-01-12T13:38:48.846Z,7.86
2023-01-12T13:41:46.595Z,7.88
2023-01-12T13:44:22.024Z,7.89
2023-01-12T13:46:52.506Z,7.94
2023-01-12T13:49:27.949Z,8.09
2023-01-12T13:52:01.810Z,8.34
2023-01-12T13:54:30.576Z,8.62
2023-01-12T13:57:02.524Z,8.89
2023-01-12T13:59:31.031Z,9.00
2023-01-12T14:01:59.843Z,9.03
2023-01-12T14:04:51.630Z,8.89
2023-01-12T14:07:37.643Z,8.69
2023-01-12T14:10:21.789Z,8.54
2023-01-12T14:13:11.351Z,8.62
2023-01-12T14:15:58.826Z,8.74
2023-01-12T14:18:28.871Z,8.98
2023-01-12T14:20:59.191Z,9.23
2023-01-12T14:23:33.786Z,9.44
2023-01-12T14:26:07.255Z,9.45
2023-01-12T14:28:38.247Z,9.27
2023-01-12T14:31:09.260Z,9.08
2023-01-12T14:33:41.013Z,8.97
2023-01-12T14:36:17.476Z,8.90
2023-01-12T14:38:46.519Z,8.84
2023-01-12T14:41:37.127Z,8.81
2023-01-12T14:44:25.500Z,8.76
2023-01-12T14:46:55.118Z,8.66
2023-01-12T14:49:28.767Z,8.65
2023-01-12T14:51:58.577Z,8.55
2023-01-12T14:54:29.175Z,8.40
2023-01-12T14:57:00.729Z,8.27
2023-01-12T14:59:33.063Z,8.14
2023-01-12T15:02:37.769Z,7.97
2023-01-12T15:05:19.660Z,7.80
2023-01-12T15:07:56.753Z,7.65
2023-01-12T15:10:33.997Z,7.51
2023-01-12T15:13:22.955Z,7.41
2023-01-12T15:16:12.012Z,7.30
2023-01-12T15:19:12.997Z,7.20
2023-01-12T15:22:05.424Z,7.07
2023-01-12T15:24:54.495Z,7.00
2023-01-12T15:27:24.494Z,6.90
2023-01-12T15:29:53.031Z,6.80
2023-01-12T15:32:41.382Z,6.72
2023-01-12T15:35:21.176Z,6.63
2023-01-12T15:37:49.617Z,6.57
2023-01-12T15:40:19.226Z,6.50
2023-01-12T15:42:47.991Z,6.45
2023-01-12T15:45:23.783Z,6.39
2023-01-12T15:47:53.479Z,6.32
2023-01-12T15:50:21.879Z,6.27
2023-01-12T15:52:51.218Z,6.22
2023-01-12T15:55:21.990Z,6.16
2023-01-12T15:57:52.267Z,6.11
2023-01-12T16:00:22.916Z,6.06
2023-01-12T16:02:53.994Z,6.01
2023-01-12T16:05:26.189Z,5.97
2023-01-12T16:07:55.056Z,5.91
2023-01-12T16:10:23.478Z,5.90
2023-01-12T16:12:51.819Z,5.87
2023-01-12T16:15:22.464Z,5.83
2023-01-12T16:17:51.368Z,5.80
2023-01-12T16:20:21.589Z,5.76
2023-01-12T16:22:50.381Z,5.73
2023-01-12T16:25:18.988Z,5.70
2023-01-12T16:27:47.569Z,5.69
2023-01-12T16:30:16.863Z,5.68
2023-01-12T16:32:47.240Z,5.66
2023-01-12T16:35:16.352Z,5.63
2023-01-12T16:37:46.072Z,5.60
2023-01-12T16:40:14.668Z,5.59
2023-01-12T16:42:43.039Z,5.57
2023-01-12T16:45:11.675Z,5.56
2023-01-12T16:47:39.994Z,5.53
2023-01-12T16:50:09.082Z,5.51
2023-01-12T16:52:37.482Z,5.51
2023-01-12T16:55:07.816Z,5.48
2023-01-12T16:57:37.289Z,5.46
2023-01-12T17:00:06.489Z,5.44
2023-01-12T17:02:35.091Z,5.42
2023-01-12T17:05:03.650Z,5.40
2023-01-12T17:07:32.098Z,5.39
2023-01-12T17:10:00.607Z,5.36
2023-01-12T17:12:30.576Z,5.32
2023-01-12T17:15:00.064Z,5.30
2023-01-12T17:17:29.167Z,5.27
2023-01-12T17:19:57.860Z,5.26
2023-01-12T17:22:27.038Z,5.25
2023-01-12T17:24:55.648Z,5.26
2023-01-12T17:27:25.929Z,5.23
2023-01-12T17:29:55.687Z,5.21
2023-01-12T17:32:24.147Z,5.20
2023-01-12T17:34:52.587Z,5.21
2023-01-12T17:37:20.951Z,5.19
2023-01-12T17:39:49.371Z,5.19
2023-01-12T17:42:36.596Z,5.18
2023-01-12T17:45:07.624Z,5.16
2023-01-12T17:47:36.517Z,5.15
2023-01-12T17:50:05.243Z,5.16
2023-01-12T17:52:33.815Z,5.15
2023-01-12T17:55:02.375Z,5.13
2023-01-12T17:57:32.015Z,5.12
2023-01-12T18:00:00.495Z,5.09
2023-01-12T18:02:30.298Z,5.07
2023-01-12T18:04:58.681Z,5.06
2023-01-12T18:07:27.061Z,5.06
2023-01-12T18:09:55.487Z,5.03
2023-01-12T18:12:26.055Z,5.02
2023-01-12T18:14:55.573Z,5.01
2023-01-12T18:17:24.581Z,5.01
2023-01-12T18:19:54.540Z,4.99
2023-01-12T18:22:22.946Z,4.98
2023-01-12T18:24:51.553Z,4.97
2023-01-12T18:27:19.967Z,4.97
2023-01-12T18:29:48.448Z,4.96
2023-01-12T18:32:16.816Z,4.96
2023-01-12T18:34:45.470Z,4.95
2023-01-12T18:37:15.202Z,4.93
2023-01-12T18:39:44.210Z,4.91
2023-01-12T18:42:30.128Z,4.88
2023-01-12T18:44:59.524Z,4.85
2023-01-12T18:47:45.530Z,4.83
2023-01-12T18:50:31.652Z,4.82
2023-01-12T18:53:18.910Z,4.79
2023-01-12T18:55:47.835Z,4.79
2023-01-12T18:58:16.214Z,4.78
2023-01-12T19:00:44.573Z,4.77
2023-01-12T19:03:13.263Z,4.77
2023-01-12T19:05:53.357Z,4.78
2023-01-12T19:08:40.525Z,4.77
2023-01-12T19:11:10.617Z,4.73
2023-01-12T19:13:57.069Z,4.70
2023-01-12T19:16:42.986Z,4.70
2023-01-12T19:19:12.099Z,4.70
2023-01-12T19:22:06.888Z,4.69
2023-01-12T19:24:54.192Z,4.69
2023-01-12T19:27:40.550Z,4.68
2023-01-12T19:30:10.603Z,4.67
2023-01-12T19:32:38.941Z,4.66
2023-01-12T19:35:11.320Z,4.66
2023-01-12T19:37:42.500Z,4.65
2023-01-12T19:40:19.461Z,4.60
2023-01-12T19:43:05.402Z,4.58
2023-01-12T19:45:37.358Z,4.57
2023-01-12T19:48:07.363Z,4.56
2023-01-12T19:50:36.645Z,4.56
2023-01-12T19:53:05.779Z,4.53
2023-01-12T19:55:35.672Z,4.54
2023-01-12T19:58:08.698Z,4.53
2023-01-12T20:00:39.098Z,4.53
2023-01-12T20:03:07.422Z,4.54
2023-01-12T20:05:38.295Z,4.58
2023-01-12T20:08:07.420Z,4.58
2023-01-12T20:10:38.180Z,4.56
2023-01-12T20:13:09.118Z,4.57
2023-01-12T20:15:39.494Z,4.54
2023-01-12T20:18:08.902Z,4.54
2023-01-12T20:20:37.256Z,4.51
2023-01-12T20:23:05.613Z,4.49
2023-01-12T20:25:34.098Z,4.46
2023-01-12T20:28:03.862Z,4.43
2023-01-12T20:30:37.965Z,4.40
2023-01-12T20:33:06.855Z,4.40
2023-01-12T20:35:38.328Z,4.36
2023-01-12T20:38:13.146Z,4.32
2023-01-12T20:40:41.533Z,4.29
2023-01-12T20:43:11.421Z,4.28
2023-01-12T20:45:41.470Z,4.26
2023-01-12T20:48:13.241Z,4.27
2023-01-12T20:50:46.420Z,4.30
2023-01-12T20:53:16.275Z,4.32
2023-01-12T20:55:46.059Z,4.32
2023-01-12T20:58:16.271Z,4.30
2023-01-12T21:00:45.144Z,4.28
2023-01-12T21:03:13.693Z,4.26
2023-01-12T21:05:42.902Z,4.24
2023-01-12T21:08:11.894Z,4.23
2023-01-12T21:10:42.086Z,4.20
2023-01-12T21:13:10.463Z,4.17
2023-01-12T21:15:40.249Z,4.12
2023-01-12T21:18:08.904Z,4.09
2023-01-12T21:20:37.257Z,4.06
2023-01-12T21:23:05.706Z,4.03
2023-01-12T21:25:34.085Z,3.99
2023-01-12T21:28:02.444Z,3.94
2023-01-12T21:30:30.859Z,3.91
2023-01-12T21:33:00.588Z,3.90
2023-01-12T21:35:28.954Z,3.87
2023-01-12T21:37:57.957Z,3.85
2023-01-12T21:40:26.858Z,3.84
2023-01-12T21:43:11.888Z,3.84
2023-01-12T21:45:42.504Z,3.85
2023-01-12T21:48:13.671Z,3.85
2023-01-12T21:50:42.040Z,3.81
2023-01-12T21:53:14.791Z,3.81
2023-01-12T21:55:43.603Z,3.79
2023-01-12T21:58:12.020Z,3.77
2023-01-12T22:00:40.370Z,3.75
2023-01-12T22:03:08.688Z,3.75
2023-01-12T22:05:38.956Z,3.74
2023-01-12T22:08:07.299Z,3.73
2023-01-12T22:10:35.576Z,3.72
2023-01-12T22:13:06.619Z,3.72
2023-01-12T22:15:35.928Z,3.72
2023-01-12T22:18:04.535Z,3.72
2023-01-12T22:20:32.898Z,3.70
2023-01-12T22:23:03.019Z,3.70
2023-01-12T22:25:31.325Z,3.70
2023-01-12T22:27:59.678Z,3.72
2023-01-12T22:30:28.081Z,3.77
2023-01-12T22:32:56.894Z,3.80
2023-01-12T22:35:26.063Z,3.78
2023-01-12T22:37:55.760Z,3.77
2023-01-12T22:40:25.517Z,3.76
2023-01-12T22:43:11.888Z,3.73
2023-01-12T22:45:40.523Z,3.74
2023-01-12T22:48:08.956Z,3.75
2023-01-12T22:50:37.821Z,3.75
2023-01-12T22:53:06.146Z,3.75
2023-01-12T22:55:40.211Z,3.73
2023-01-12T22:58:08.768Z,3.72
2023-01-12T23:00:39.760Z,3.70
2023-01-12T23:03:09.558Z,3.70
2023-01-12T23:05:45.823Z,3.70
2023-01-12T23:08:15.835Z,3.70
2023-01-12T23:10:46.550Z,3.68
2023-01-12T23:13:19.555Z,3.69
2023-01-12T23:15:51.097Z,3.69
2023-01-12T23:18:22.076Z,3.70
2023-01-12T23:20:51.163Z,3.72
2023-01-12T23:23:19.639Z,3.72
2023-01-12T23:25:49.897Z,3.73
2023-01-12T23:28:23.659Z,3.73
2023-01-12T23:30:52.311Z,3.72
2023-01-12T23:33:21.395Z,3.74
2023-01-12T23:35:52.037Z,3.77
2023-01-12T23:38:21.283Z,3.77
2023-01-12T23:40:51.436Z,3.78
2023-01-12T23:43:20.877Z,3.79
2023-01-12T23:45:50.374Z,3.80
2023-01-12T23:48:19.751Z,3.80
2023-01-12T23:50:48.830Z,3.81
2023-01-12T23:53:19.692Z,3.83
2023-01-12T23:55:50.162Z,3.84
2023-01-12T23:58:21.819Z,3.85
